Time;durP1;ratioP1;P1;durP2;ratioP2;P2;SDS_P1;SDS_P2;PMS_P1;PMS_P2;Temp;Humidity;BMP_temperature;BMP_pressure;BME280_temperature;BME280_humidity;BME280_pressure;Samples;Min_cycle;Max_cycle;Signal;HPM_P1;HPM_P2
2022/12/05 00:00:56;;;;;;;7.85;6.13;;;2.10;99.90;;;;;;5097345;28;20489;-65
2022/12/05 00:03:23;;;;;;;7.20;6.35;;;2.10;99.90;;;;;;5102697;28;20109;-62
2022/12/05 00:05:50;;;;;;;9.50;6.75;;;2.20;99.90;;;;;;5101288;28;20140;-63
2022/12/05 00:08:17;;;;;;;12.05;7.72;;;2.20;99.90;;;;;;5100783;28;20583;-63
2022/12/05 00:10:44;;;;;;;8.70;6.70;;;2.20;99.90;;;;;;5099559;28;20104;-64
2022/12/05 00:13:11;;;;;;;13.07;7.68;;;2.20;99.90;;;;;;5095135;28;20048;-64
2022/12/05 00:15:39;;;;;;;10.85;7.28;;;2.20;99.90;;;;;;5099395;28;20050;-63
2022/12/05 00:18:07;;;;;;;9.77;7.03;;;2.20;99.90;;;;;;5099879;28;20055;-65
2022/12/05 00:20:34;;;;;;;13.30;7.47;;;2.20;99.90;;;;;;5105658;27;20043;-63
2022/12/05 00:23:01;;;;;;;9.70;7.25;;;2.20;99.90;;;;;;5099351;28;20050;-63
2022/12/05 00:25:27;;;;;;;9.60;6.18;;;2.20;99.90;;;;;;5096173;28;20403;-68
2022/12/05 00:27:54;;;;;;;10.50;6.90;;;2.20;99.90;;;;;;5093242;28;20059;-65
2022/12/05 00:30:21;;;;;;;7.82;6.10;;;2.20;99.90;;;;;;5095086;28;20088;-63
2022/12/05 00:32:48;;;;;;;12.07;6.93;;;2.20;99.90;;;;;;5103534;28;20473;-62
2022/12/05 00:35:15;;;;;;;10.25;6.35;;;2.20;99.90;;;;;;5096286;28;20051;-64
2022/12/05 00:37:42;;;;;;;11.00;7.13;;;2.20;99.90;;;;;;5100618;28;20071;-68
2022/12/05 00:40:10;;;;;;;11.52;9.02;;;2.20;99.90;;;;;;5097754;28;20457;-64
2022/12/05 00:42:37;;;;;;;11.00;7.40;;;2.20;99.90;;;;;;5096947;28;20070;-64
2022/12/05 00:45:04;;;;;;;13.85;7.53;;;2.20;99.90;;;;;;5101921;28;20047;-63
2022/12/05 00:47:35;;;;;;;9.52;7.55;;;2.30;99.90;;;;;;5098848;28;20151;-64
2022/12/05 00:50:03;;;;;;;8.52;6.93;;;2.20;99.90;;;;;;5099702;28;20073;-65
2022/12/05 00:52:30;;;;;;;9.73;7.55;;;2.20;99.90;;;;;;5098190;28;20070;-63
2022/12/05 00:54:57;;;;;;;14.95;8.35;;;2.20;99.90;;;;;;5101609;28;20124;-64
2022/12/05 00:57:24;;;;;;;10.25;7.28;;;2.20;99.90;;;;;;5095799;28;20059;-62
2022/12/05 00:59:51;;;;;;;9.23;6.03;;;2.20;99.90;;;;;;5100945;28;20138;-67
2022/12/05 01:02:17;;;;;;;12.27;7.70;;;2.20;99.90;;;;;;5098958;28;20059;-63
2022/12/05 01:04:44;;;;;;;9.68;6.95;;;2.20;99.90;;;;;;5096000;28;20044;-62
2022/12/05 01:07:11;;;;;;;9.48;6.20;;;2.20;99.90;;;;;;5094597;28;20047;-66
2022/12/05 01:09:38;;;;;;;12.45;7.97;;;2.20;99.90;;;;;;5096910;28;20599;-64
2022/12/05 01:12:05;;;;;;;8.43;6.65;;;2.20;99.90;;;;;;5101812;28;20047;-63
2022/12/05 01:14:33;;;;;;;11.40;7.45;;;2.20;99.90;;;;;;5096204;28;20039;-64
2022/12/05 01:17:00;;;;;;;9.82;7.03;;;2.20;99.90;;;;;;5097742;28;20477;-63
2022/12/05 01:19:30;;;;;;;8.32;6.63;;;2.20;99.90;;;;;;5102349;28;20562;-64
2022/12/05 01:21:57;;;;;;;8.27;7.43;;;2.20;99.90;;;;;;5096747;28;20066;-64
2022/12/05 01:24:26;;;;;;;10.18;7.32;;;2.20;99.90;;;;;;5098549;28;20052;-63
2022/12/05 01:26:53;;;;;;;12.32;7.07;;;2.20;99.90;;;;;;5099114;28;20123;-65
2022/12/05 01:29:22;;;;;;;11.63;7.15;;;2.20;99.90;;;;;;5097294;28;20052;-63
2022/12/05 01:31:50;;;;;;;9.75;7.70;;;2.20;99.90;;;;;;5077844;28;20558;-64
2022/12/05 01:34:18;;;;;;;9.32;6.43;;;2.20;99.90;;;;;;5097653;28;20055;-62
2022/12/05 01:36:45;;;;;;;8.82;7.22;;;2.10;99.90;;;;;;5097243;28;20051;-62
2022/12/05 01:39:13;;;;;;;9.13;7.43;;;2.10;99.90;;;;;;5097073;28;20646;-62
2022/12/05 01:41:46;;;;;;;10.38;7.53;;;2.20;99.90;;;;;;5098213;28;20162;-63
2022/12/05 01:44:13;;;;;;;13.10;8.05;;;2.20;99.90;;;;;;5104197;28;20051;-62
2022/12/05 01:46:43;;;;;;;11.90;8.60;;;2.20;99.90;;;;;;5101036;28;20254;-62
2022/12/05 01:49:16;;;;;;;;;;;2.20;99.90;;;;;;5099583;28;20585;-63
2022/12/05 01:51:51;;;;;;;9.60;7.57;;;2.10;99.90;;;;;;5099182;28;19976;-65
2022/12/05 01:54:19;;;;;;;12.05;7.32;;;2.20;99.90;;;;;;5100818;28;20123;-64
2022/12/05 01:56:56;;;;;;;9.35;6.93;;;2.10;99.90;;;;;;5097723;28;20075;-63
2022/12/05 01:59:25;;;;;;;11.70;7.20;;;2.20;99.90;;;;;;5103418;28;20044;-62
2022/12/05 02:01:53;;;;;;;9.43;7.10;;;2.20;99.90;;;;;;5097577;28;20420;-64
2022/12/05 02:04:20;;;;;;;9.85;6.72;;;2.20;99.90;;;;;;5103533;28;20544;-63
2022/12/05 02:06:47;;;;;;;11.90;9.05;;;2.20;99.90;;;;;;5098308;28;20055;-64
2022/12/05 02:09:14;;;;;;;10.48;7.18;;;2.20;99.90;;;;;;5100211;28;20138;-64
2022/12/05 02:11:58;;;;;;;8.50;7.03;;;2.20;99.90;;;;;;5096704;28;20409;-63
2022/12/05 02:14:45;;;;;;;8.13;6.13;;;2.20;99.90;;;;;;5102154;28;20048;-62
2022/12/05 02:17:28;;;;;;;9.85;6.60;;;2.20;99.90;;;;;;5101316;28;20465;-62
2022/12/05 02:20:18;;;;;;;8.93;6.50;;;2.20;99.90;;;;;;5103507;27;20036;-66
2022/12/05 02:22:55;;;;;;;8.15;6.57;;;2.10;99.90;;;;;;5100976;28;20441;-64
2022/12/05 02:25:42;;;;;;;9.88;7.03;;;2.10;99.90;;;;;;5103760;28;20075;-63
2022/12/05 02:28:39;;;;;;;12.45;7.38;;;2.10;99.90;;;;;;5101006;28;20047;-67
2022/12/05 02:31:12;;;;;;;9.10;6.82;;;2.10;99.90;;;;;;5103488;28;20406;-64
2022/12/05 02:33:48;;;;;;;8.77;7.15;;;2.10;99.90;;;;;;5093968;28;20117;-62
2022/12/05 02:36:34;;;;;;;10.27;7.13;;;2.10;99.90;;;;;;5103101;28;20097;-63
2022/12/05 02:39:11;;;;;;;9.25;6.65;;;2.10;99.90;;;;;;5097268;28;20136;-64
2022/12/05 02:41:50;;;;;;;14.02;7.03;;;2.10;99.90;;;;;;5103297;28;20075;-64
2022/12/05 02:44:51;;;;;;;9.90;6.72;;;2.10;99.90;;;;;;5096248;28;20141;-62
2022/12/05 02:47:21;;;;;;;9.60;7.32;;;2.10;99.90;;;;;;5104332;28;20048;-64
2022/12/05 02:49:51;;;;;;;12.20;7.18;;;2.20;99.90;;;;;;5099360;28;20050;-63
2022/12/05 02:52:20;;;;;;;10.70;6.60;;;2.20;99.90;;;;;;5094737;28;20131;-64
2022/12/05 02:54:49;;;;;;;9.27;7.10;;;2.20;99.90;;;;;;5096587;28;20383;-62
2022/12/05 02:57:17;;;;;;;8.35;6.22;;;2.10;99.90;;;;;;5097311;28;20087;-62
2022/12/05 02:59:44;;;;;;;7.65;6.85;;;2.10;99.90;;;;;;5099614;28;20085;-66
2022/12/05 03:02:32;;;;;;;11.35;7.40;;;2.10;99.90;;;;;;5103542;28;20149;-63
2022/12/05 03:05:14;;;;;;;9.77;6.80;;;2.10;99.90;;;;;;5095007;28;20062;-67
2022/12/05 03:07:45;;;;;;;10.57;7.43;;;2.10;99.90;;;;;;5095336;28;20067;-63
2022/12/05 03:10:14;;;;;;;9.50;6.32;;;2.10;99.90;;;;;;5102086;27;20056;-63
2022/12/05 03:12:46;;;;;;;8.60;6.80;;;2.10;99.90;;;;;;5096738;28;20055;-66
2022/12/05 03:15:32;;;;;;;10.02;7.22;;;2.10;99.90;;;;;;5098061;27;20087;-62
2022/12/05 03:18:16;;;;;;;12.07;8.07;;;2.10;99.90;;;;;;5101659;28;20057;-63
2022/12/05 03:20:48;;;;;;;9.30;6.38;;;2.10;99.90;;;;;;5084425;28;20051;-64
2022/12/05 03:23:24;;;;;;;9.73;6.30;;;2.10;99.90;;;;;;5100937;28;20559;-64
2022/12/05 03:26:13;;;;;;;10.40;6.95;;;2.10;99.90;;;;;;5094855;28;20048;-63
2022/12/05 03:29:07;;;;;;;13.30;6.55;;;2.10;99.90;;;;;;5097352;28;20044;-63
2022/12/05 03:31:43;;;;;;;9.15;7.60;;;2.10;99.90;;;;;;5098824;28;20063;-62
2022/12/05 03:34:19;;;;;;;10.13;7.72;;;2.00;99.90;;;;;;5099160;28;20067;-63
2022/12/05 03:36:50;;;;;;;8.02;6.35;;;2.00;99.90;;;;;;5098968;28;20044;-63
2022/12/05 03:39:25;;;;;;;10.23;7.50;;;2.00;99.90;;;;;;5102054;28;20078;-63
2022/12/05 03:42:13;;;;;;;10.38;8.15;;;2.10;99.90;;;;;;5099622;28;20083;-64
2022/12/05 03:45:10;;;;;;;8.60;6.63;;;2.10;99.90;;;;;;5100778;28;20032;-64
2022/12/05 03:47:57;;;;;;;9.85;6.13;;;2.00;99.90;;;;;;5089257;28;20130;-62
2022/12/05 03:50:28;;;;;;;9.63;7.05;;;2.10;99.90;;;;;;5101625;28;20146;-65
2022/12/05 03:53:02;;;;;;;7.82;6.13;;;2.10;99.90;;;;;;5096167;28;20127;-62
2022/12/05 03:56:00;;;;;;;8.35;6.15;;;2.10;99.90;;;;;;5100312;28;20054;-62
2022/12/05 03:58:36;;;;;;;9.48;6.85;;;2.10;99.90;;;;;;5097810;28;20142;-63
2022/12/05 04:01:07;;;;;;;8.77;6.43;;;2.10;99.90;;;;;;5094193;28;20550;-62
2022/12/05 04:03:49;;;;;;;11.45;7.40;;;2.10;99.90;;;;;;5097855;28;20499;-62
2022/12/05 04:06:36;;;;;;;8.10;6.95;;;2.10;99.90;;;;;;5099374;28;20633;-62
2022/12/05 04:09:11;;;;;;;13.85;6.07;;;2.10;99.90;;;;;;5098917;28;20047;-68
2022/12/05 04:11:48;;;;;;;9.43;6.85;;;2.10;99.90;;;;;;5094106;28;20109;-63
2022/12/05 04:14:36;;;;;;;10.50;7.18;;;2.10;99.90;;;;;;5098864;28;20119;-63
2022/12/05 04:17:17;;;;;;;9.77;7.30;;;2.10;99.90;;;;;;5094846;28;20505;-63
2022/12/05 04:22:39;;;;;;;15.30;8.52;;;2.10;99.90;;;;;;5095020;28;20131;-63
2022/12/05 04:28:02;;;;;;;9.45;6.45;;;2.10;99.90;;;;;;5091938;28;20044;-64
2022/12/05 04:30:53;;;;;;;9.85;7.55;;;2.20;99.90;;;;;;5092096;28;20139;-62
2022/12/05 04:33:26;;;;;;;8.90;6.10;;;2.20;99.90;;;;;;5095090;28;20845;-64
2022/12/05 04:36:01;;;;;;;15.00;7.10;;;2.20;99.90;;;;;;5091486;28;20445;-62
2022/12/05 04:38:50;;;;;;;9.85;7.13;;;2.20;99.90;;;;;;5096952;28;20044;-63
2022/12/05 04:41:29;;;;;;;12.90;7.47;;;2.20;99.90;;;;;;5096444;28;20090;-62
2022/12/05 04:44:00;;;;;;;7.78;6.15;;;2.20;99.90;;;;;;5098481;28;20158;-64
2022/12/05 04:46:27;;;;;;;8.80;6.75;;;2.20;99.90;;;;;;5101613;28;20127;-62
2022/12/05 04:48:59;;;;;;;11.77;8.20;;;2.20;99.90;;;;;;5097682;28;20578;-66
2022/12/05 04:51:30;;;;;;;9.55;7.10;;;2.20;99.90;;;;;;5096815;28;20072;-63
2022/12/05 04:54:22;;;;;;;13.85;7.38;;;2.20;99.90;;;;;;5094234;28;20090;-65
2022/12/05 04:56:53;;;;;;;10.65;6.68;;;2.20;99.90;;;;;;5080941;28;20151;-62
2022/12/05 04:59:26;;;;;;;12.35;6.70;;;2.20;99.90;;;;;;5098960;28;20126;-62
2022/12/05 05:01:58;;;;;;;12.20;8.32;;;2.20;99.90;;;;;;5099926;28;20126;-65
2022/12/05 05:04:40;;;;;;;10.10;6.25;;;2.30;99.90;;;;;;5100946;28;20047;-62
2022/12/05 05:07:09;;;;;;;10.43;7.32;;;2.20;99.90;;;;;;5097279;28;20035;-62
2022/12/05 05:09:37;;;;;;;10.43;7.57;;;2.30;99.90;;;;;;5099961;28;20051;-64
2022/12/05 05:12:04;;;;;;;11.25;8.07;;;2.20;99.90;;;;;;5096129;28;20062;-62
2022/12/05 05:14:31;;;;;;;10.63;7.05;;;2.30;99.90;;;;;;5102749;28;20048;-62
2022/12/05 05:16:58;;;;;;;14.32;7.93;;;2.30;99.90;;;;;;5104150;28;20627;-62
2022/12/05 05:19:25;;;;;;;12.00;7.07;;;2.30;99.90;;;;;;5105899;28;20381;-64
2022/12/05 05:21:52;;;;;;;10.32;7.32;;;2.30;99.90;;;;;;5101479;28;20044;-62
2022/12/05 05:24:24;;;;;;;12.07;7.90;;;2.30;99.90;;;;;;5102410;28;20043;-62
2022/12/05 05:26:52;;;;;;;11.68;8.15;;;2.30;99.90;;;;;;5108710;27;20117;-66
2022/12/05 05:29:23;;;;;;;7.13;6.05;;;2.30;99.90;;;;;;5103884;27;20105;-62
2022/12/05 05:31:50;;;;;;;12.10;8.15;;;2.30;99.90;;;;;;5102077;28;20036;-62
2022/12/05 05:34:17;;;;;;;9.30;7.03;;;2.30;99.90;;;;;;5103389;28;20044;-63
2022/12/05 05:36:44;;;;;;;9.77;7.63;;;2.30;99.90;;;;;;5095943;28;20052;-63
2022/12/05 05:39:13;;;;;;;11.55;7.63;;;2.30;99.90;;;;;;5103094;27;20131;-63
2022/12/05 05:41:41;;;;;;;8.23;6.85;;;2.30;99.90;;;;;;5102408;28;20089;-63
2022/12/05 05:44:09;;;;;;;15.52;8.20;;;2.30;99.90;;;;;;5099612;27;20134;-63
2022/12/05 05:46:36;;;;;;;14.85;8.52;;;2.30;99.90;;;;;;5103218;28;20130;-64
2022/12/05 05:49:04;;;;;;;14.02;9.77;;;2.30;99.90;;;;;;5101787;28;20044;-63
2022/12/05 05:51:31;;;;;;;12.55;8.13;;;2.30;99.90;;;;;;5103214;28;20463;-64
2022/12/05 05:53:59;;;;;;;10.10;7.57;;;2.30;99.90;;;;;;5097305;28;20139;-66
2022/12/05 05:56:26;;;;;;;14.23;8.88;;;2.30;99.90;;;;;;5103381;28;20079;-63
2022/12/05 05:58:55;;;;;;;10.93;7.80;;;2.30;99.90;;;;;;5099481;28;20135;-65
2022/12/05 06:01:23;;;;;;;9.18;7.32;;;2.30;99.90;;;;;;5105338;28;20059;-64
2022/12/05 06:03:50;;;;;;;11.05;8.52;;;2.30;99.90;;;;;;5100361;28;20481;-62
2022/12/05 06:06:19;;;;;;;13.48;9.30;;;2.30;99.90;;;;;;5100100;28;20047;-62
2022/12/05 06:08:46;;;;;;;15.10;8.57;;;2.30;99.90;;;;;;5078765;28;20122;-63
2022/12/05 06:11:17;;;;;;;15.35;9.45;;;2.30;99.90;;;;;;5103887;28;20131;-62
2022/12/05 06:13:53;;;;;;;15.77;9.50;;;2.30;99.90;;;;;;5099053;28;20040;-62
2022/12/05 06:16:20;;;;;;;13.35;10.68;;;2.30;99.90;;;;;;5098580;28;20058;-63
2022/12/05 06:18:48;;;;;;;12.88;10.80;;;2.30;99.90;;;;;;5097090;28;20048;-62
2022/12/05 06:21:16;;;;;;;20.08;11.57;;;2.30;99.90;;;;;;5106228;28;20082;-62
2022/12/05 06:23:43;;;;;;;15.63;10.52;;;2.30;99.90;;;;;;5080509;28;20071;-66
2022/12/05 06:26:12;;;;;;;19.17;12.10;;;2.30;99.90;;;;;;5100888;28;20154;-62
2022/12/05 06:28:40;;;;;;;17.70;10.30;;;2.30;99.90;;;;;;5098150;28;20199;-65
2022/12/05 06:31:16;;;;;;;18.85;11.88;;;2.30;99.90;;;;;;5099864;28;20101;-62
2022/12/05 06:33:43;;;;;;;14.57;9.98;;;2.30;99.90;;;;;;5099053;28;20063;-63
2022/12/05 06:36:13;;;;;;;14.85;10.70;;;2.30;99.90;;;;;;5104310;28;20102;-63
2022/12/05 06:38:40;;;;;;;20.45;11.00;;;2.30;99.90;;;;;;5097101;28;20504;-64
2022/12/05 06:41:14;;;;;;;18.00;11.10;;;2.30;99.90;;;;;;5100111;28;20101;-62
2022/12/05 06:43:41;;;;;;;16.90;10.68;;;2.30;99.90;;;;;;5104862;28;20047;-62
2022/12/05 06:46:10;;;;;;;27.20;10.43;;;2.30;99.90;;;;;;5100463;28;20466;-63
2022/12/05 06:48:38;;;;;;;23.40;9.07;;;2.40;99.90;;;;;;5096639;28;20124;-62
2022/12/05 06:51:09;;;;;;;17.35;11.35;;;2.40;99.90;;;;;;5095574;28;20040;-64
2022/12/05 06:53:36;;;;;;;37.33;10.43;;;2.40;99.90;;;;;;5096799;28;20036;-62
2022/12/05 06:56:07;;;;;;;20.30;11.30;;;2.40;99.90;;;;;;5099509;28;20048;-68
2022/12/05 06:58:34;;;;;;;18.67;9.57;;;2.40;99.90;;;;;;5101429;28;20050;-62
2022/12/05 07:03:49;;;;;;;15.40;10.35;;;2.40;99.90;;;;;;5101114;28;20120;-62
2022/12/05 07:06:16;;;;;;;24.33;12.18;;;2.40;99.90;;;;;;5085437;28;20138;-62
2022/12/05 07:08:43;;;;;;;20.75;10.50;;;2.40;99.90;;;;;;5098583;28;20461;-63
2022/12/05 07:11:11;;;;;;;17.10;11.20;;;2.40;99.90;;;;;;5102523;28;20397;-64
2022/12/05 07:13:37;;;;;;;18.10;11.52;;;2.40;99.90;;;;;;5099380;28;20153;-64
2022/12/05 07:16:05;;;;;;;16.02;9.25;;;2.50;99.90;;;;;;5103726;28;20040;-63
2022/12/05 07:18:34;;;;;;;14.05;9.43;;;2.50;99.90;;;;;;5098484;28;20051;-64
2022/12/05 07:21:07;;;;;;;14.55;10.57;;;2.50;99.90;;;;;;5100347;28;20046;-62
2022/12/05 07:23:40;;;;;;;18.38;10.27;;;2.50;99.90;;;;;;5102670;28;20051;-63
2022/12/05 07:26:10;;;;;;;11.07;8.85;;;2.50;99.90;;;;;;5102251;28;20117;-62
2022/12/05 07:28:37;;;;;;;18.02;10.20;;;2.50;99.90;;;;;;5095544;28;20458;-65
2022/12/05 07:31:12;;;;;;;15.02;9.50;;;2.50;99.90;;;;;;5115022;27;20181;-63
2022/12/05 07:33:39;;;;;;;11.88;9.25;;;2.50;99.90;;;;;;5096254;28;20089;-62
2022/12/05 07:36:12;;;;;;;15.65;9.60;;;2.50;99.90;;;;;;5093415;28;20080;-65
2022/12/05 07:38:40;;;;;;;15.55;9.68;;;2.50;99.90;;;;;;5103066;27;20059;-66
2022/12/05 07:41:12;;;;;;;15.90;9.18;;;2.60;99.90;;;;;;5096367;28;20091;-64
2022/12/05 07:43:40;;;;;;;13.60;9.63;;;2.60;99.90;;;;;;5100424;28;20051;-63
2022/12/05 07:46:10;;;;;;;15.18;10.85;;;2.60;99.90;;;;;;5095166;28;20058;-63
2022/12/05 07:48:37;;;;;;;19.67;10.10;;;2.60;99.90;;;;;;5097581;28;20048;-64
2022/12/05 07:51:07;;;;;;;16.20;10.50;;;2.60;99.90;;;;;;5097160;28;20151;-62
2022/12/05 07:53:35;;;;;;;14.82;9.38;;;2.60;99.90;;;;;;5098082;28;20384;-62
2022/12/05 07:56:04;;;;;;;17.25;9.68;;;2.60;99.90;;;;;;5098791;28;20050;-65
2022/12/05 07:58:33;;;;;;;16.67;9.80;;;2.60;99.90;;;;;;5097274;28;20051;-63
2022/12/05 08:01:18;;;;;;;14.18;9.30;;;2.60;99.90;;;;;;5082389;28;20048;-64
2022/12/05 08:03:46;;;;;;;11.23;8.50;;;2.60;99.90;;;;;;5099253;28;20534;-63
2022/12/05 08:06:16;;;;;;;13.82;9.00;;;2.60;99.90;;;;;;5098766;28;20237;-62
2022/12/05 08:08:43;;;;;;;19.77;10.73;;;2.60;99.90;;;;;;5095964;28;20485;-63
2022/12/05 08:11:14;;;;;;;15.00;9.60;;;2.60;99.90;;;;;;5100661;28;20388;-62
2022/12/05 08:13:42;;;;;;;15.30;9.82;;;2.70;99.90;;;;;;5100104;28;20145;-63
2022/12/05 08:16:12;;;;;;;11.68;9.02;;;2.70;99.90;;;;;;5100984;28;20516;-67
2022/12/05 08:18:39;;;;;;;12.60;9.43;;;2.70;99.90;;;;;;5097783;28;20052;-63
2022/12/05 08:21:12;;;;;;;15.07;9.85;;;2.70;99.90;;;;;;5096782;28;20040;-62
2022/12/05 08:23:39;;;;;;;17.10;9.65;;;2.70;99.90;;;;;;5099651;28;20757;-62
2022/12/05 08:26:19;;;;;;;17.10;10.75;;;2.70;99.90;;;;;;5099700;28;20131;-63
2022/12/05 08:28:50;;;;;;;20.30;13.43;;;2.70;99.90;;;;;;5093682;28;20052;-66
2022/12/05 08:31:22;;;;;;;15.40;11.80;;;2.80;99.90;;;;;;5097738;28;20142;-63
2022/12/05 08:33:51;;;;;;;19.83;12.93;;;2.80;99.90;;;;;;5094823;28;20039;-63
2022/12/05 08:36:25;;;;;;;18.83;13.00;;;2.80;99.90;;;;;;5098270;28;20166;-64
2022/12/05 08:38:59;;;;;;;15.45;12.48;;;2.80;99.90;;;;;;5102067;28;20142;-62
2022/12/05 08:41:29;;;;;;;17.33;12.85;;;2.90;99.90;;;;;;5100432;28;20086;-62
2022/12/05 08:43:59;;;;;;;20.60;13.85;;;2.80;99.90;;;;;;5099549;28;20062;-65
2022/12/05 08:46:25;;;;;;;18.42;11.80;;;2.90;99.90;;;;;;5099296;28;20048;-64
2022/12/05 08:48:52;;;;;;;23.13;13.35;;;2.90;99.90;;;;;;5092869;28;20059;-64
2022/12/05 08:51:20;;;;;;;17.17;13.65;;;2.90;99.90;;;;;;5098042;28;20423;-62
2022/12/05 08:53:46;;;;;;;18.20;13.80;;;3.00;99.90;;;;;;5097927;28;20136;-64
2022/12/05 08:56:13;;;;;;;22.55;15.52;;;3.00;99.90;;;;;;5096928;28;20044;-63
2022/12/05 08:58:40;;;;;;;20.15;14.93;;;3.00;99.90;;;;;;5095592;28;20466;-62
2022/12/05 09:01:10;;;;;;;25.63;18.38;;;3.00;99.90;;;;;;5103751;28;20055;-62
2022/12/05 09:03:38;;;;;;;24.27;16.38;;;3.00;99.90;;;;;;5100746;28;20047;-63
2022/12/05 09:06:19;;;;;;;28.30;17.05;;;3.00;99.90;;;;;;5097306;28;20056;-62
2022/12/05 09:08:48;;;;;;;32.45;18.92;;;3.00;99.90;;;;;;5099410;28;20474;-62
2022/12/05 09:11:17;;;;;;;24.75;18.17;;;3.00;99.90;;;;;;5099947;28;20431;-62
2022/12/05 09:13:46;;;;;;;28.17;18.98;;;3.10;99.90;;;;;;5100408;28;20096;-62
2022/12/05 09:16:19;;;;;;;25.45;17.67;;;3.10;99.90;;;;;;5099987;28;20059;-64
2022/12/05 09:18:48;;;;;;;26.48;18.75;;;3.10;99.90;;;;;;5098834;28;20537;-64
2022/12/05 09:21:18;;;;;;;24.00;17.55;;;3.10;99.90;;;;;;5098923;28;20047;-63
2022/12/05 09:23:45;;;;;;;22.67;14.88;;;3.10;99.90;;;;;;5096987;28;20142;-62
2022/12/05 09:26:14;;;;;;;19.50;15.15;;;3.10;99.90;;;;;;5094903;28;20468;-63
2022/12/05 09:28:42;;;;;;;20.05;15.70;;;3.10;99.90;;;;;;5094800;28;20199;-66
2022/12/05 09:31:11;;;;;;;23.73;16.10;;;3.10;99.90;;;;;;5101554;28;20051;-64
2022/12/05 09:33:39;;;;;;;23.43;17.57;;;3.10;99.90;;;;;;5099695;28;20070;-63
2022/12/05 09:36:12;;;;;;;21.35;15.85;;;3.10;99.90;;;;;;5098537;28;20046;-66
2022/12/05 09:38:39;;;;;;;18.55;13.63;;;3.20;99.90;;;;;;5094758;28;20090;-64
2022/12/05 09:42:03;;;;;;;21.73;15.23;;;3.20;99.90;;;;;;5097065;28;20143;-62
2022/12/05 09:44:27;;;;;;;20.88;13.73;;;3.20;99.90;;;;;;5097778;28;20047;-62
2022/12/05 09:46:59;;;;;;;19.25;13.95;;;3.20;99.90;;;;;;5096018;28;20202;-63
2022/12/05 09:49:29;;;;;;;20.42;14.05;;;3.20;99.90;;;;;;5085986;28;20052;-63
2022/12/05 09:51:57;;;;;;;19.65;14.15;;;3.20;99.90;;;;;;5098906;28;20486;-66
2022/12/05 09:54:25;;;;;;;18.95;12.90;;;3.20;99.90;;;;;;5099476;28;20097;-63
2022/12/05 09:56:52;;;;;;;19.08;13.02;;;3.20;99.90;;;;;;5092470;28;20419;-64
2022/12/05 09:59:20;;;;;;;18.98;12.05;;;3.20;99.90;;;;;;5102311;28;20080;-63
2022/12/05 10:02:20;;;;;;;16.83;12.82;;;3.20;99.90;;;;;;5101774;28;20494;-63
2022/12/05 10:05:25;;;;;;;19.50;12.43;;;3.20;99.90;;;;;;5102115;28;20091;-62
2022/12/05 10:08:09;;;;;;;15.10;11.95;;;3.20;99.90;;;;;;5088836;28;20125;-62
2022/12/05 10:10:57;;;;;;;14.88;10.57;;;3.20;99.90;;;;;;5101320;28;20524;-62
2022/12/05 10:13:54;;;;;;;14.48;10.52;;;3.20;99.90;;;;;;5102991;27;20046;-63
2022/12/05 10:16:34;;;;;;;14.73;12.18;;;3.20;99.90;;;;;;5100998;28;20050;-64
2022/12/05 10:19:11;;;;;;;13.95;10.77;;;3.30;99.90;;;;;;5101978;28;20047;-65
2022/12/05 10:21:49;;;;;;;17.90;10.55;;;3.30;99.90;;;;;;5099351;28;20043;-63
2022/12/05 10:24:42;;;;;;;13.80;10.43;;;3.30;99.90;;;;;;5099213;28;20048;-64
2022/12/05 10:27:17;;;;;;;13.88;9.68;;;3.30;99.90;;;;;;5090934;28;20411;-64
2022/12/05 10:29:56;;;;;;;21.95;11.93;;;3.30;99.90;;;;;;5110085;27;20088;-65
2022/12/05 10:32:30;;;;;;;15.52;10.27;;;3.30;99.90;;;;;;5106129;27;20534;-65
2022/12/05 10:35:17;;;;;;;15.57;11.02;;;3.30;99.90;;;;;;5102282;27;20036;-64
2022/12/05 10:37:54;;;;;;;15.63;10.38;;;3.30;99.90;;;;;;5092509;28;20048;-64
2022/12/05 10:40:21;;;;;;;16.95;11.15;;;3.40;99.90;;;;;;5100733;28;20101;-64
2022/12/05 10:42:50;;;;;;;18.17;11.98;;;3.30;99.90;;;;;;5099112;28;20086;-63
2022/12/05 10:45:22;;;;;;;17.63;11.52;;;3.30;99.90;;;;;;5102187;28;20054;-64
2022/12/05 10:47:54;;;;;;;14.23;9.30;;;3.40;99.90;;;;;;5098977;28;20058;-64
2022/12/05 10:50:35;;;;;;;17.75;11.80;;;3.30;99.90;;;;;;5099947;27;20097;-63
2022/12/05 10:53:03;;;;;;;19.23;12.75;;;3.30;99.90;;;;;;5097652;28;20043;-64
2022/12/05 10:55:39;;;;;;;18.10;13.30;;;3.30;99.90;;;;;;5095839;28;20521;-63
2022/12/05 10:58:11;;;;;;;20.85;13.52;;;3.40;99.90;;;;;;5100821;28;20564;-62
2022/12/05 11:00:47;;;;;;;17.95;10.90;;;3.40;99.90;;;;;;5097831;28;20057;-63
2022/12/05 11:03:29;;;;;;;19.80;13.23;;;3.40;99.90;;;;;;5099295;28;20410;-64
2022/12/05 11:06:17;;;;;;;20.02;13.13;;;3.40;99.90;;;;;;5098496;28;20116;-63
2022/12/05 11:08:52;;;;;;;25.92;13.65;;;3.40;99.90;;;;;;5100286;28;20050;-64
2022/12/05 11:11:32;;;;;;;26.85;14.20;;;3.40;99.90;;;;;;5104404;28;20476;-63
2022/12/05 11:14:04;;;;;;;24.80;12.73;;;3.40;99.90;;;;;;5101468;28;20051;-63
2022/12/05 11:16:35;;;;;;;22.98;14.80;;;3.40;99.90;;;;;;5096184;27;20036;-68
2022/12/05 11:19:20;;;;;;;26.52;15.07;;;3.40;99.90;;;;;;5102804;28;20055;-63
2022/12/05 11:21:48;;;;;;;33.97;16.90;;;3.40;99.90;;;;;;5102358;28;20056;-64
2022/12/05 11:24:29;;;;;;;26.98;16.05;;;3.40;99.90;;;;;;5097573;28;20478;-64
2022/12/05 11:26:57;;;;;;;;;;;3.30;99.90;;;;;;5095513;28;20151;-66
2022/12/05 11:29:33;;;;;;;26.85;15.52;;;3.30;99.90;;;;;;5102740;28;20285;-66
2022/12/05 11:32:01;;;;;;;27.27;14.95;;;3.30;99.90;;;;;;5103091;28;20427;-64
2022/12/05 11:34:36;;;;;;;26.50;15.40;;;3.30;99.90;;;;;;5092977;28;20040;-64
2022/12/05 11:37:17;;;;;;;23.00;14.43;;;3.30;99.90;;;;;;5100384;28;20039;-64
2022/12/05 11:39:44;;;;;;;24.73;14.25;;;3.30;99.90;;;;;;5100241;28;20058;-63
2022/12/05 11:42:52;;;;;;;27.73;17.25;;;3.30;99.90;;;;;;5102297;28;20094;-65
2022/12/05 11:45:37;;;;;;;27.95;14.95;;;3.30;99.90;;;;;;5077442;28;20058;-66
2022/12/05 11:48:07;;;;;;;29.13;15.77;;;3.30;99.90;;;;;;5094746;28;20135;-65
2022/12/05 11:51:11;;;;;;;28.17;13.77;;;3.30;99.90;;;;;;5106098;27;20055;-67
2022/12/05 11:53:56;;;;;;;22.42;13.68;;;3.30;99.90;;;;;;5100240;28;20047;-63
2022/12/05 11:56:34;;;;;;;27.17;15.93;;;3.30;99.90;;;;;;5100075;28;20756;-64
2022/12/05 11:59:40;;;;;;;29.77;15.98;;;3.30;99.90;;;;;;5096949;28;20123;-67
2022/12/05 12:02:27;;;;;;;21.10;13.45;;;3.30;99.90;;;;;;5055689;28;20138;-69
2022/12/05 12:05:06;;;;;;;26.98;14.15;;;3.30;99.90;;;;;;5094431;28;20044;-65
2022/12/05 12:07:58;;;;;;;25.83;16.45;;;3.30;99.90;;;;;;5097492;28;20047;-63
2022/12/05 12:10:32;;;;;;;22.52;14.23;;;3.20;99.90;;;;;;5100995;28;20477;-63
2022/12/05 12:13:23;;;;;;;30.40;15.93;;;3.30;99.90;;;;;;5092640;28;20438;-64
2022/12/05 12:15:56;;;;;;;25.30;13.73;;;3.20;99.90;;;;;;5095769;28;20048;-67
2022/12/05 12:18:47;;;;;;;23.75;15.38;;;3.20;99.90;;;;;;5100666;28;20681;-63
2022/12/05 12:21:20;;;;;;;26.42;14.40;;;3.30;99.90;;;;;;5096244;28;20070;-63
2022/12/05 12:24:32;;;;;;;22.45;13.65;;;3.30;99.90;;;;;;5100275;28;20127;-64
2022/12/05 12:27:10;;;;;;;29.67;15.35;;;3.20;99.90;;;;;;5031748;28;20778;-64
2022/12/05 12:29:56;;;;;;;25.00;14.93;;;3.20;99.90;;;;;;5098269;28;20067;-64
2022/12/05 12:32:44;;;;;;;29.85;14.57;;;3.20;99.90;;;;;;5086844;28;20130;-63
2022/12/05 12:35:30;;;;;;;20.73;13.45;;;3.20;99.90;;;;;;5096653;28;20048;-63
2022/12/05 12:38:16;;;;;;;22.63;14.60;;;3.20;99.90;;;;;;5100045;28;20075;-64
2022/12/05 12:40:48;;;;;;;25.40;13.60;;;3.20;99.90;;;;;;5096102;28;20061;-63
2022/12/05 12:43:39;;;;;;;23.48;14.40;;;3.20;99.90;;;;;;5100519;28;20111;-63
2022/12/05 12:46:28;;;;;;;21.20;12.63;;;3.20;99.90;;;;;;5099368;28;20056;-64
2022/12/05 12:48:58;;;;;;;28.42;14.48;;;3.20;99.90;;;;;;5102210;28;20050;-63
2022/12/05 12:51:26;;;;;;;25.92;14.15;;;3.20;99.90;;;;;;5097097;28;20067;-64
2022/12/05 12:54:29;;;;;;;23.17;13.98;;;3.10;99.90;;;;;;5098034;28;20052;-63
2022/12/05 12:57:46;;;;;;;25.92;14.80;;;3.10;99.90;;;;;;5092431;28;20048;-64
2022/12/05 13:00:35;;;;;;;25.15;12.55;;;3.10;99.90;;;;;;5068858;28;20059;-65
2022/12/05 13:03:16;;;;;;;25.65;15.57;;;3.10;99.90;;;;;;5098027;28;20126;-64
2022/12/05 13:05:58;;;;;;;20.77;12.70;;;3.00;99.90;;;;;;5102820;28;20433;-64
2022/12/05 13:08:38;;;;;;;28.48;16.58;;;3.00;99.90;;;;;;5095962;28;20069;-63
2022/12/05 13:11:08;;;;;;;28.33;15.88;;;3.00;99.90;;;;;;5099058;28;20050;-63
2022/12/05 13:13:43;;;;;;;33.35;16.80;;;3.00;99.90;;;;;;5096236;28;20046;-66
2022/12/05 13:16:15;;;;;;;31.23;17.30;;;3.00;99.90;;;;;;5101147;28;20139;-66
2022/12/05 13:18:42;;;;;;;24.77;14.10;;;2.90;99.90;;;;;;5099985;28;20143;-63
2022/12/05 13:21:09;;;;;;;25.48;14.43;;;3.00;99.90;;;;;;5099904;28;20516;-63
2022/12/05 13:23:53;;;;;;;26.65;15.18;;;2.90;99.90;;;;;;5097420;28;20082;-63
2022/12/05 13:26:20;;;;;;;26.05;13.88;;;2.90;99.90;;;;;;5100160;28;20409;-64
2022/12/05 13:28:54;;;;;;;22.98;15.18;;;2.90;99.90;;;;;;5095177;28;20044;-63